Time;durP1;ratioP1;P1;durP2;ratioP2;P2;SDS_P1;SDS_P2;PMS_P1;PMS_P2;Temp;Humidity;BMP_temperature;BMP_pressure;BME280_temperature;BME280_humidity;BME280_pressure;Samples;Min_cycle;Max_cycle;Signal;HPM_P1;HPM_P2
2023/06/18 00:00:56;;;;;;;3.10;2.80;;;;;;;23.83;44.30;100373.00;4521284;28;20033;-71
2023/06/18 00:03:06;;;;;;;3.17;2.88;;;;;;;23.76;44.40;100370.88;4521887;28;20030;-70
2023/06/18 00:05:17;;;;;;;3.47;3.15;;;;;;;23.83;44.13;100384.53;4520969;28;20033;-71
2023/06/18 00:07:27;;;;;;;3.28;2.97;;;;;;;23.82;44.18;100377.94;4520773;28;20037;-71
2023/06/18 00:09:37;;;;;;;3.38;3.08;;;;;;;23.80;44.24;100374.59;4520563;28;20044;-70
2023/06/18 00:11:49;;;;;;;3.05;2.75;;;;;;;23.83;44.20;100385.38;4521183;28;20045;-72
2023/06/18 00:13:59;;;;;;;2.95;2.70;;;;;;;23.81;44.32;100384.09;4528372;28;20048;-72
2023/06/18 00:16:10;;;;;;;2.90;2.67;;;;;;;23.82;44.08;100382.91;4520743;28;20114;-71
2023/06/18 00:18:20;;;;;;;3.22;2.92;;;;;;;23.81;44.20;100382.06;4520192;28;21000;-72
2023/06/18 00:20:32;;;;;;;3.40;3.10;;;;;;;23.82;44.13;100383.69;4520691;28;20483;-72
2023/06/18 00:22:44;;;;;;;3.45;3.15;;;;;;;23.79;44.35;100378.72;4520600;28;20156;-71
2023/06/18 00:24:54;;;;;;;3.50;3.20;;;;;;;23.80;44.12;100382.44;4523064;28;20135;-71
2023/06/18 00:27:05;;;;;;;3.22;2.92;;;;;;;23.77;43.90;100375.41;4521715;28;20030;-71
2023/06/18 00:29:16;;;;;;;3.40;3.10;;;;;;;23.81;44.38;100386.97;4520663;28;20029;-72
2023/06/18 00:31:27;;;;;;;3.03;2.72;;;;;;;23.66;44.03;100356.34;4518231;28;20447;-71
2023/06/18 00:33:38;;;;;;;3.53;3.22;;;;;;;23.77;44.09;100375.41;4504417;28;20038;-71
2023/06/18 00:35:48;;;;;;;3.33;3.03;;;;;;;23.76;43.98;100379.53;4520206;28;20383;-71
2023/06/18 00:37:59;;;;;;;3.22;2.92;;;;;;;23.74;44.06;100376.19;4523256;28;20049;-70
2023/06/18 00:40:12;;;;;;;3.30;3.00;;;;;;;23.71;43.92;100376.97;4522946;28;20022;-72
2023/06/18 00:42:22;;;;;;;3.45;3.05;;;;;;;23.79;44.04;100389.41;4524811;28;20032;-71
2023/06/18 00:44:34;;;;;;;3.38;3.08;;;;;;;23.74;44.03;100372.50;4531338;28;20599;-71
2023/06/18 00:46:46;;;;;;;3.20;2.90;;;;;;;23.78;43.99;100382.84;4522576;28;20071;-72
2023/06/18 00:48:57;;;;;;;3.30;3.00;;;;;;;23.77;44.02;100374.59;4522038;28;20124;-72
2023/06/18 00:51:08;;;;;;;3.70;3.40;;;;;;;23.75;44.05;100377.03;4527886;28;21418;-71
2023/06/18 00:53:20;;;;;;;3.83;3.53;;;;;;;23.76;43.88;100381.56;4525277;28;20048;-72
2023/06/18 00:55:32;;;;;;;3.83;3.45;;;;;;;23.72;44.30;100381.53;4523749;28;20034;-71
2023/06/18 00:57:49;;;;;;;3.63;3.33;;;;;;;23.77;44.21;100386.94;4522597;28;20117;-71
2023/06/18 00:59:59;;;;;;;3.20;2.90;;;;;;;23.74;44.21;100381.97;4524299;28;20036;-71
2023/06/18 01:02:10;;;;;;;3.45;3.15;;;;;;;23.76;43.93;100381.56;4522720;28;20540;-71
2023/06/18 01:04:27;;;;;;;3.40;3.10;;;;;;;23.74;44.15;100381.97;4524433;28;20808;-71
2023/06/18 01:06:37;;;;;;;3.38;3.08;;;;;;;23.75;44.25;100379.91;4522026;28;21014;-71
2023/06/18 01:08:48;;;;;;;3.55;3.10;;;;;;;23.70;44.23;100378.22;4522941;28;20042;-72
2023/06/18 01:11:02;;;;;;;3.40;3.10;;;;;;;23.73;44.03;100380.31;4521055;28;20029;-71
2023/06/18 01:13:14;;;;;;;3.60;3.30;;;;;;;23.74;43.99;100384.84;4520967;28;20021;-71
2023/06/18 01:15:28;;;;;;;3.90;3.50;;;;;;;23.72;44.08;100383.59;4525798;28;20041;-71
2023/06/18 01:17:40;;;;;;;3.50;3.20;;;;;;;23.73;43.85;100380.31;4526656;28;20585;-71
2023/06/18 01:19:57;;;;;;;3.78;3.47;;;;;;;23.73;43.84;100374.53;4527413;28;20108;-71
2023/06/18 01:22:17;;;;;;;3.45;3.15;;;;;;;23.70;44.16;100375.34;4527499;28;20784;-71
2023/06/18 01:24:32;;;;;;;3.50;3.20;;;;;;;23.72;43.95;100372.06;4527187;28;20037;-70
2023/06/18 01:26:44;;;;;;;4.18;3.55;;;;;;;23.73;44.19;100376.59;4530721;28;20043;-72
2023/06/18 01:28:58;;;;;;;4.80;3.42;;;;;;;23.70;43.99;100375.34;4528230;28;20037;-71
2023/06/18 01:31:10;;;;;;;3.53;3.22;;;;;;;23.70;44.53;100372.47;4527595;28;20026;-71
2023/06/18 01:33:21;;;;;;;3.55;3.25;;;;;;;23.67;44.16;100371.16;4540609;28;20167;-72
2023/06/18 01:35:31;;;;;;;3.70;3.30;;;;;;;23.70;44.25;100372.47;4526839;28;20673;-71
2023/06/18 01:37:50;;;;;;;3.70;3.40;;;;;;;23.69;44.34;100367.09;4527702;28;20145;-71
2023/06/18 01:40:09;;;;;;;3.63;3.33;;;;;;;23.71;44.40;100376.97;4527860;28;20062;-71
2023/06/18 01:42:24;;;;;;;3.45;3.15;;;;;;;23.69;44.33;100369.97;4535689;28;20017;-71
2023/06/18 01:44:35;;;;;;;3.47;3.17;;;;;;;23.70;44.39;100372.47;4534282;28;20033;-71
2023/06/18 01:46:51;;;;;;;3.28;2.97;;;;;;;23.69;44.31;100373.66;4527295;28;20107;-71
2023/06/18 01:49:07;;;;;;;3.45;3.15;;;;;;;23.66;44.29;100374.44;4525957;28;21202;-70
2023/06/18 01:51:20;;;;;;;3.85;3.45;;;;;;;23.67;44.23;100376.94;4526657;28;20637;-71
2023/06/18 01:53:34;;;;;;;3.58;3.28;;;;;;;23.67;44.43;100378.16;4526174;28;20659;-71
2023/06/18 01:55:46;;;;;;;3.40;3.00;;;;;;;23.66;44.26;100368.69;4534685;28;20045;-71
2023/06/18 01:58:00;;;;;;;3.20;2.90;;;;;;;23.67;44.08;100368.28;4525146;28;20049;-70
2023/06/18 02:00:11;;;;;;;3.30;3.00;;;;;;;23.67;44.00;100376.94;4526173;28;20064;-71
2023/06/18 02:02:24;;;;;;;3.20;2.90;;;;;;;23.65;43.80;100378.56;4527504;28;20025;-71
2023/06/18 02:04:35;;;;;;;3.40;3.10;;;;;;;23.67;43.87;100376.13;4534847;28;20295;-70
2023/06/18 02:06:46;;;;;;;3.20;2.90;;;;;;;23.66;43.77;100367.88;4526810;28;20033;-71
2023/06/18 02:08:56;;;;;;;3.45;3.15;;;;;;;23.62;43.61;100364.94;4527294;28;20022;-71
2023/06/18 02:11:07;;;;;;;3.67;3.38;;;;;;;23.66;43.87;100374.44;4525823;28;20040;-70
2023/06/18 02:13:18;;;;;;;3.40;3.10;;;;;;;23.67;44.27;100369.53;4526970;28;20083;-71
2023/06/18 02:15:29;;;;;;;3.53;3.22;;;;;;;23.65;43.96;100372.81;4527386;28;20079;-71
2023/06/18 02:17:40;;;;;;;3.25;2.95;;;;;;;23.63;44.42;100373.19;4527513;28;20103;-70
2023/06/18 02:19:50;;;;;;;3.35;3.05;;;;;;;23.64;44.03;100371.16;4525857;28;20512;-71
2023/06/18 02:22:00;;;;;;;3.03;2.72;;;;;;;23.63;43.99;100371.56;4526928;28;20037;-70
2023/06/18 02:24:11;;;;;;;3.50;3.00;;;;;;;23.60;43.90;100370.28;4534544;28;20544;-71
2023/06/18 02:26:21;;;;;;;3.30;3.00;;;;;;;23.61;43.97;100369.88;4526374;28;20052;-70
2023/06/18 02:28:32;;;;;;;3.35;3.05;;;;;;;23.58;43.79;100364.06;4526883;28;20057;-70
2023/06/18 02:30:42;;;;;;;3.08;2.78;;;;;;;23.60;43.63;100367.38;4527033;28;20148;-71
2023/06/18 02:32:52;;;;;;;3.28;2.97;;;;;;;23.62;43.60;100370.72;4526449;28;20169;-70
2023/06/18 02:35:04;;;;;;;3.10;2.85;;;;;;;23.60;43.43;100367.38;4525803;28;20119;-71
2023/06/18 02:37:14;;;;;;;3.40;3.10;;;;;;;23.61;43.53;100363.28;4525681;28;20626;-71
2023/06/18 02:39:24;;;;;;;3.42;3.13;;;;;;;23.59;43.58;100368.63;4528467;28;20032;-71
2023/06/18 02:41:35;;;;;;;3.63;3.22;;;;;;;23.58;43.59;100356.25;4529065;28;20041;-71
2023/06/18 02:43:47;;;;;;;3.45;3.15;;;;;;;23.59;43.53;100357.09;4526686;28;20116;-71
2023/06/18 02:45:58;;;;;;;3.88;3.42;;;;;;;23.49;43.68;100337.63;4524673;28;20164;-71
2023/06/18 02:48:08;;;;;;;3.60;3.30;;;;;;;23.60;43.58;100358.75;4527690;28;20105;-71
2023/06/18 02:50:20;;;;;;;3.38;3.08;;;;;;;23.57;43.39;100353.78;4525666;28;20026;-71
2023/06/18 02:52:30;;;;;;;3.30;3.00;;;;;;;23.58;43.40;100347.63;4524737;28;20110;-71
2023/06/18 02:54:43;;;;;;;3.92;3.20;;;;;;;23.52;43.62;100346.31;4525179;28;20107;-71
2023/06/18 02:56:53;;;;;;;3.42;3.13;;;;;;;23.57;43.25;100348.00;4526864;28;20049;-71
2023/06/18 02:59:04;;;;;;;3.65;3.28;;;;;;;23.58;43.48;100355.41;4527568;28;20034;-71
2023/06/18 03:01:19;;;;;;;3.20;2.90;;;;;;;23.56;43.24;100352.13;4525949;28;20388;-70
2023/06/18 03:03:29;;;;;;;3.38;3.08;;;;;;;23.55;43.31;100348.41;4525752;28;20804;-71
2023/06/18 03:05:42;;;;;;;3.30;3.00;;;;;;;23.50;43.38;100348.75;4524309;28;20757;-71
2023/06/18 03:07:52;;;;;;;3.10;2.80;;;;;;;23.53;43.61;100347.97;4533614;28;20099;-71
2023/06/18 03:10:05;;;;;;;3.92;3.25;;;;;;;23.50;43.60;100343.00;4527228;28;20029;-71
2023/06/18 03:12:17;;;;;;;3.15;2.85;;;;;;;23.52;43.59;100352.06;4527209;28;20040;-71
2023/06/18 03:14:28;;;;;;;4.60;3.10;;;;;;;23.51;43.24;100346.72;4509285;28;20080;-71
2023/06/18 03:16:39;;;;;;;3.38;2.97;;;;;;;23.52;43.43;100349.19;4525018;28;20048;-71
2023/06/18 03:18:50;;;;;;;3.38;3.08;;;;;;;23.48;42.89;100351.19;4525414;28;20045;-71
2023/06/18 03:21:01;;;;;;;3.47;3.10;;;;;;;23.50;42.58;100350.78;4525966;28;20160;-71
2023/06/18 03:23:12;;;;;;;3.75;3.42;;;;;;;23.51;43.01;100344.66;4508978;28;20042;-70
2023/06/18 03:25:26;;;;;;;3.63;3.33;;;;;;;23.51;43.11;100346.72;4526115;28;20531;-71
2023/06/18 03:27:36;;;;;;;3.70;3.40;;;;;;;23.47;43.14;100340.06;4529572;28;20029;-71
2023/06/18 03:29:47;;;;;;;4.22;3.38;;;;;;;23.49;43.52;100340.50;4526645;28;20033;-71
2023/06/18 03:31:58;;;;;;;3.38;3.08;;;;;;;23.49;43.34;100340.50;4526937;28;20037;-71
2023/06/18 03:34:09;;;;;;;3.85;3.10;;;;;;;23.50;43.27;100345.03;4524545;28;20069;-71
2023/06/18 03:36:20;;;;;;;3.55;3.25;;;;;;;23.50;43.30;100342.16;4530045;28;20501;-71
2023/06/18 03:38:32;;;;;;;3.50;3.20;;;;;;;23.48;43.13;100339.66;4521947;28;20041;-72
2023/06/18 03:40:45;;;;;;;3.47;3.17;;;;;;;23.47;43.58;100331.41;4525438;28;20120;-71
2023/06/18 03:42:58;;;;;;;3.15;2.85;;;;;;;23.49;43.38;100340.50;4526687;28;20025;-71
2023/06/18 03:45:09;;;;;;;3.42;3.13;;;;;;;23.48;43.45;100341.72;4534179;28;20037;-71
2023/06/18 03:47:20;;;;;;;3.28;2.97;;;;;;;23.47;43.68;100340.06;4525502;28;20025;-72
2023/06/18 03:49:32;;;;;;;3.60;2.90;;;;;;;23.46;43.67;100342.13;4524666;28;20037;-71
2023/06/18 03:51:43;;;;;;;3.20;2.90;;;;;;;23.47;43.51;100343.78;4526964;28;20033;-70
2023/06/18 03:53:54;;;;;;;3.50;3.20;;;;;;;23.47;43.65;100343.78;4532479;28;20402;-71
2023/06/18 03:56:05;;;;;;;3.40;3.10;;;;;;;23.43;43.67;100336.31;4524984;28;20336;-71
2023/06/18 03:58:16;;;;;;;3.40;3.10;;;;;;;23.44;43.69;100347.44;4525527;28;20037;-71
2023/06/18 04:00:30;;;;;;;4.13;3.40;;;;;;;23.46;43.82;100355.69;4524931;28;20033;-71
2023/06/18 04:02:41;;;;;;;4.03;3.20;;;;;;;23.46;43.77;100356.53;4507889;28;20185;-72
2023/06/18 04:04:58;;;;;;;3.58;3.20;;;;;;;23.46;44.17;100347.06;4524781;28;20599;-71
2023/06/18 04:07:08;;;;;;;3.33;3.03;;;;;;;23.45;44.06;100356.94;4525591;28;20774;-71
2023/06/18 04:09:19;;;;;;;3.20;2.90;;;;;;;23.44;43.96;100361.84;4526808;28;20124;-70
2023/06/18 04:11:29;;;;;;;3.42;3.13;;;;;;;23.41;44.02;100350.28;4524931;28;20096;-71
2023/06/18 04:13:40;;;;;;;3.92;3.22;;;;;;;23.45;44.14;100357.72;4526365;28;20053;-70
2023/06/18 04:15:51;;;;;;;3.55;3.20;;;;;;;23.42;44.11;100351.94;4529262;28;20107;-71
2023/06/18 04:18:02;;;;;;;3.30;3.00;;;;;;;23.45;44.17;100356.94;4529372;28;20125;-71
2023/06/18 04:20:12;;;;;;;3.30;3.00;;;;;;;23.45;44.06;100365.56;4527779;28;20564;-71
2023/06/18 04:22:23;;;;;;;3.33;3.03;;;;;;;23.39;44.07;100352.72;4527134;28;20112;-71
2023/06/18 04:24:33;;;;;;;3.33;3.03;;;;;;;23.43;44.53;100353.59;4527533;28;20710;-71
2023/06/18 04:26:44;;;;;;;3.33;3.03;;;;;;;23.44;44.59;100355.25;4544471;28;20696;-70
2023/06/18 04:28:55;;;;;;;3.50;3.20;;;;;;;23.45;44.67;100362.69;4528049;28;20116;-70
2023/06/18 04:31:06;;;;;;;3.50;3.20;;;;;;;23.45;44.55;100362.69;4528395;28;20568;-71
2023/06/18 04:33:16;;;;;;;3.33;2.97;;;;;;;23.43;44.33;100359.38;4528990;28;20037;-70
2023/06/18 04:35:27;;;;;;;3.30;3.00;;;;;;;23.43;44.56;100362.25;4527628;28;20068;-71
2023/06/18 04:37:38;;;;;;;3.60;3.30;;;;;;;23.43;44.47;100363.09;4529511;28;20045;-72
2023/06/18 04:39:49;;;;;;;3.33;2.92;;;;;;;23.42;44.54;100366.34;4531597;28;20022;-71
2023/06/18 04:42:00;;;;;;;3.75;2.90;;;;;;;23.42;44.44;100358.53;4514734;28;20038;-70
2023/06/18 04:44:12;;;;;;;3.20;2.90;;;;;;;23.44;44.77;100366.78;4529332;28;20052;-71
2023/06/18 04:46:23;;;;;;;3.45;3.15;;;;;;;23.43;44.47;100359.38;4529310;28;20044;-71
2023/06/18 04:48:34;;;;;;;3.40;3.10;;;;;;;23.40;45.13;100360.97;4527254;28;20571;-71
2023/06/18 04:50:46;;;;;;;3.30;3.00;;;;;;;23.41;44.92;100356.88;4530051;28;20041;-72
2023/06/18 04:52:56;;;;;;;3.13;2.83;;;;;;;23.43;44.70;100365.13;4533401;28;20048;-72
2023/06/18 04:55:08;;;;;;;2.83;2.63;;;;;;;23.38;44.52;100356.81;4536213;28;20974;-72
2023/06/18 04:57:19;;;;;;;3.20;2.90;;;;;;;23.39;44.97;100356.44;4525426;28;20033;-72
2023/06/18 04:59:31;;;;;;;3.10;2.80;;;;;;;23.40;44.87;100363.84;4527174;28;20043;-71
2023/06/18 05:01:42;;;;;;;3.33;3.03;;;;;;;23.43;45.03;100368.84;4527920;28;20021;-70
2023/06/18 05:03:53;;;;;;;3.17;2.78;;;;;;;23.42;45.16;100369.25;4528985;28;20034;-70
2023/06/18 05:06:04;;;;;;;3.00;2.70;;;;;;;23.39;45.47;100367.13;4529130;28;20033;-71
2023/06/18 05:08:15;;;;;;;3.15;2.85;;;;;;;23.40;45.37;100374.56;4526438;28;20110;-70
2023/06/18 05:10:26;;;;;;;2.75;2.50;;;;;;;23.32;45.25;100361.28;4526347;28;20029;-70
2023/06/18 05:12:38;;;;;;;3.40;3.10;;;;;;;23.42;44.94;100375.00;4526369;28;20099;-70
2023/06/18 05:14:48;;;;;;;3.30;3.00;;;;;;;23.39;45.26;100370.84;4526681;28;20087;-71
2023/06/18 05:16:59;;;;;;;3.35;3.00;;;;;;;23.42;45.09;100375.00;4529009;28;20129;-70
2023/06/18 05:19:10;;;;;;;3.47;3.05;;;;;;;23.40;45.20;100377.44;4526481;28;20041;-71
2023/06/18 05:21:21;;;;;;;3.35;3.05;;;;;;;23.40;45.71;100371.66;4528301;28;20140;-70
2023/06/18 05:23:32;;;;;;;3.05;2.75;;;;;;;23.28;45.62;100354.63;4529823;28;20026;-70
2023/06/18 05:25:42;;;;;;;3.38;3.08;;;;;;;23.40;45.87;100381.13;4529142;28;20532;-70
2023/06/18 05:27:53;;;;;;;3.05;2.75;;;;;;;23.42;46.00;100386.53;4529695;28;20579;-70
2023/06/18 05:30:05;;;;;;;2.90;2.70;;;;;;;23.42;45.92;100386.53;4528655;28;20139;-70
2023/06/18 05:32:17;;;;;;;3.85;3.08;;;;;;;23.42;46.26;100386.53;4527530;28;20044;-70
2023/06/18 05:34:28;;;;;;;3.28;2.97;;;;;;;23.42;45.90;100383.63;4527733;28;20087;-71
2023/06/18 05:36:38;;;;;;;4.03;3.00;;;;;;;23.42;45.78;100386.53;4528722;28;20120;-71
2023/06/18 05:38:50;;;;;;;2.90;2.60;;;;;;;23.40;46.22;100383.19;4520996;28;20079;-71
2023/06/18 05:43:44;;;;;;;2.90;2.63;;;;;;;23.44;46.25;100395.56;5373006;22;20067;-69
2023/06/18 05:45:54;;;;;;;2.75;2.55;;;;;;;23.45;46.05;100397.25;4542923;28;20063;-68
2023/06/18 05:48:08;;;;;;;2.63;2.42;;;;;;;23.42;45.74;100390.22;4527471;28;20044;-68
2023/06/18 05:50:28;;;;;;;3.13;2.83;;;;;;;23.43;45.72;100393.94;4526135;28;20021;-68
2023/06/18 05:52:39;;;;;;;3.10;2.80;;;;;;;23.43;46.24;100388.16;4525174;28;20428;-68
2023/06/18 05:54:50;;;;;;;2.78;2.58;;;;;;;23.45;46.14;100391.50;4525062;28;20021;-69
2023/06/18 05:57:01;;;;;;;3.10;2.80;;;;;;;23.42;46.21;100400.91;4529088;28;20542;-68
2023/06/18 05:59:12;;;;;;;2.90;2.65;;;;;;;23.43;46.72;100393.94;4523396;28;20040;-68
2023/06/18 06:01:28;;;;;;;3.10;2.80;;;;;;;23.44;46.33;100407.94;4526090;28;20504;-68
2023/06/18 06:03:38;;;;;;;2.58;2.38;;;;;;;23.40;46.29;100406.25;4520779;28;20033;-69
2023/06/18 06:05:49;;;;;;;3.08;2.72;;;;;;;23.43;46.67;100411.22;4517491;28;20486;-68
2023/06/18 06:08:00;;;;;;;3.00;2.70;;;;;;;23.44;46.64;100413.69;4527685;28;20071;-68
2023/06/18 06:10:13;;;;;;;3.15;2.53;;;;;;;23.44;46.74;100412.84;4516633;28;20033;-68
2023/06/18 06:12:24;;;;;;;2.85;2.40;;;;;;;23.42;46.52;100410.38;4529494;28;20128;-68
2023/06/18 06:14:35;;;;;;;3.03;2.72;;;;;;;23.40;46.07;100406.25;4515686;28;20034;-67
2023/06/18 06:16:45;;;;;;;3.40;2.95;;;;;;;23.42;46.55;100404.59;4525661;28;20083;-67
2023/06/18 06:18:55;;;;;;;3.03;2.75;;;;;;;23.38;46.38;100402.91;4533459;28;20300;-68
2023/06/18 06:21:07;;;;;;;3.30;3.00;;;;;;;23.43;46.38;100411.22;4533846;28;20033;-68
2023/06/18 06:23:18;;;;;;;2.67;2.47;;;;;;;23.37;46.29;100412.78;4525962;28;20595;-68
2023/06/18 06:25:28;;;;;;;3.13;2.80;;;;;;;23.37;46.40;100407.03;4529025;28;20709;-69
2023/06/18 06:27:39;;;;;;;2.65;2.45;;;;;;;23.42;46.25;100421.09;4528665;28;20465;-68
2023/06/18 06:29:49;;;;;;;3.42;2.90;;;;;;;23.40;46.34;100414.88;4527709;28;20482;-68
2023/06/18 06:32:00;;;;;;;3.10;2.80;;;;;;;23.41;46.60;100413.66;4532920;28;20047;-68
2023/06/18 06:34:11;;;;;;;3.25;2.90;;;;;;;23.39;46.88;100404.56;4525417;28;20080;-68
2023/06/18 06:36:22;;;;;;;3.00;2.70;;;;;;;23.43;46.97;100411.22;4531858;28;20120;-69
2023/06/18 06:38:33;;;;;;;4.07;2.92;;;;;;;23.36;46.60;100405.34;4525322;28;20041;-69
2023/06/18 06:40:43;;;;;;;3.72;3.08;;;;;;;23.40;47.09;100415.69;4532711;28;20037;-68
2023/06/18 06:42:54;;;;;;;2.75;2.55;;;;;;;23.40;46.16;100400.47;4527331;28;20116;-69
2023/06/18 06:45:09;;;;;;;3.13;2.80;;;;;;;23.42;46.83;100418.19;4542847;28;20115;-68
2023/06/18 06:47:39;;;;;;;2.80;2.53;;;;;;;23.41;47.05;100411.59;4533904;28;20144;-70
2023/06/18 06:50:03;;;;;;;3.17;2.88;;;;;;;23.40;46.83;100421.44;4527743;28;20710;-69
2023/06/18 06:52:34;;;;;;;3.00;2.78;;;;;;;23.41;46.99;100414.47;4527102;28;20091;-70
2023/06/18 06:54:44;;;;;;;3.28;2.97;;;;;;;23.42;46.90;100421.09;4516723;28;20037;-69
2023/06/18 06:56:55;;;;;;;2.75;2.55;;;;;;;23.41;47.23;100416.53;4533115;28;20602;-70
2023/06/18 06:59:06;;;;;;;3.25;2.95;;;;;;;23.43;47.20;100422.72;4522728;28;20037;-70
2023/06/18 07:01:19;;;;;;;3.38;3.08;;;;;;;23.41;47.25;100420.25;4527238;28;20456;-69
2023/06/18 07:03:29;;;;;;;3.30;3.00;;;;;;;23.40;47.04;100412.00;4529997;28;20041;-69
2023/06/18 07:05:40;;;;;;;3.15;2.85;;;;;;;23.44;47.79;100412.84;4526901;28;20038;-70
2023/06/18 07:07:50;;;;;;;3.22;2.90;;;;;;;23.44;48.65;100416.56;4529124;28;20153;-70
2023/06/18 07:10:02;;;;;;;3.33;2.92;;;;;;;23.44;48.63;100412.84;4526336;28;20075;-69
2023/06/18 07:12:12;;;;;;;3.78;2.90;;;;;;;23.42;48.44;100404.59;4528240;28;20033;-70
2023/06/18 07:14:23;;;;;;;3.17;2.88;;;;;;;23.42;48.24;100409.56;4528437;28;20108;-70
2023/06/18 07:16:33;;;;;;;3.33;2.90;;;;;;;23.44;47.89;100407.94;4528434;28;20038;-70
2023/06/18 07:18:44;;;;;;;3.20;2.90;;;;;;;23.45;47.93;100411.66;4528870;28;20123;-70
2023/06/18 07:20:55;;;;;;;3.05;2.75;;;;;;;23.43;48.43;100405.44;4528554;28;20448;-70
2023/06/18 07:23:05;;;;;;;3.28;2.97;;;;;;;23.45;48.59;100408.78;4526177;28;20025;-70
2023/06/18 07:25:15;;;;;;;3.13;2.83;;;;;;;23.43;48.91;100406.28;4526471;28;20729;-70
2023/06/18 07:27:26;;;;;;;3.63;3.03;;;;;;;23.45;49.11;100408.78;4529041;28;20065;-69
2023/06/18 07:29:36;;;;;;;3.15;2.85;;;;;;;23.45;48.43;100408.78;4532336;28;20155;-69
2023/06/18 07:31:47;;;;;;;3.20;2.90;;;;;;;23.46;48.45;100401.78;4528013;28;20071;-70
2023/06/18 07:33:57;;;;;;;3.10;2.80;;;;;;;23.46;47.75;100407.53;4527256;28;20076;-69
2023/06/18 07:36:08;;;;;;;3.22;2.92;;;;;;;23.41;47.63;100407.88;4527621;28;20037;-70
2023/06/18 07:38:19;;;;;;;3.92;2.80;;;;;;;23.45;47.24;100409.59;4527259;28;20484;-70
2023/06/18 07:40:33;;;;;;;3.25;2.60;;;;;;;23.44;47.16;100407.09;4527000;28;20108;-70
2023/06/18 07:42:43;;;;;;;3.13;2.80;;;;;;;23.46;46.99;100417.03;4529894;28;20037;-69
2023/06/18 07:44:54;;;;;;;3.20;2.72;;;;;;;23.45;46.85;100398.06;4531481;28;20825;-69
2023/06/18 07:47:04;;;;;;;3.22;2.80;;;;;;;23.46;47.03;100399.75;4527535;28;20045;-70
2023/06/18 07:49:16;;;;;;;2.80;2.58;;;;;;;23.61;46.44;100412.25;4530367;28;20036;-69
2023/06/18 07:51:27;;;;;;;2.60;2.40;;;;;;;23.64;46.35;100405.72;4530498;28;20728;-69
2023/06/18 07:53:39;;;;;;;2.70;2.50;;;;;;;23.64;46.45;100405.72;4530320;28;20505;-70
2023/06/18 07:55:50;;;;;;;2.70;2.50;;;;;;;23.60;46.97;100401.97;4530315;28;20033;-69
2023/06/18 07:58:00;;;;;;;2.67;2.47;;;;;;;23.58;46.79;100402.34;4530019;28;20044;-70
2023/06/18 08:00:11;;;;;;;2.65;2.45;;;;;;;23.60;46.98;100396.19;4527591;28;20033;-70
2023/06/18 08:02:25;;;;;;;2.90;2.70;;;;;;;23.63;47.16;100404.06;4527236;28;20068;-70
2023/06/18 08:04:35;;;;;;;2.45;2.25;;;;;;;23.63;47.58;100409.00;4528296;28;20109;-70
2023/06/18 08:06:48;;;;;;;2.40;2.20;;;;;;;23.56;47.49;100399.03;4529021;28;20032;-70
2023/06/18 08:08:58;;;;;;;2.35;2.15;;;;;;;23.60;47.79;100399.91;4530106;28;20603;-70
2023/06/18 08:11:09;;;;;;;2.53;2.33;;;;;;;23.61;47.76;100397.84;4529815;28;20038;-70
2023/06/18 08:13:19;;;;;;;2.40;2.20;;;;;;;23.54;47.89;100389.13;4529713;28;20029;-71
2023/06/18 08:15:30;;;;;;;2.28;2.08;;;;;;;23.57;47.72;100391.22;4528553;28;20033;-70
2023/06/18 08:17:40;;;;;;;2.10;1.90;;;;;;;23.60;47.98;100399.09;4529455;28;20119;-71
2023/06/18 08:19:51;;;;;;;2.30;2.10;;;;;;;23.61;48.07;100395.81;4532233;28;20477;-69
2023/06/18 08:22:01;;;;;;;1.90;1.80;;;;;;;23.57;48.02;100394.09;4531559;28;20065;-70
2023/06/18 08:24:11;;;;;;;2.20;2.00;;;;;;;23.57;48.08;100394.09;4529147;28;20583;-70
2023/06/18 08:26:22;;;;;;;2.33;2.13;;;;;;;23.59;46.78;100385.91;4531709;28;20041;-70
2023/06/18 08:28:36;;;;;;;2.47;2.28;;;;;;;23.59;48.27;100394.56;4529732;28;20489;-70
2023/06/18 08:30:46;;;;;;;2.30;2.10;;;;;;;23.55;48.38;100382.97;4529455;28;20622;-70
2023/06/18 08:32:57;;;;;;;2.08;1.92;;;;;;;23.54;48.21;100383.38;4535028;28;20064;-69
2023/06/18 08:35:08;;;;;;;2.20;2.00;;;;;;;23.56;48.40;100387.50;4529762;28;20044;-69
2023/06/18 08:37:18;;;;;;;2.38;2.17;;;;;;;23.58;48.27;100384.22;4529412;28;20041;-69
2023/06/18 08:39:29;;;;;;;2.20;2.00;;;;;;;23.58;48.28;100385.06;4530632;28;20168;-69
2023/06/18 08:41:42;;;;;;;1.92;1.80;;;;;;;23.56;48.25;100389.56;4529832;28;20064;-69
2023/06/18 08:43:52;;;;;;;1.85;1.75;;;;;;;23.56;48.17;100380.94;4529841;28;20057;-69
2023/06/18 08:46:12;;;;;;;2.03;1.90;;;;;;;23.56;47.35;100381.75;4529329;28;20040;-74
2023/06/18 08:48:27;;;;;;;1.70;1.60;;;;;;;23.59;48.04;100394.56;4530209;28;20123;-73
2023/06/18 08:50:38;;;;;;;1.77;1.67;;;;;;;23.56;48.20;100383.81;4528555;28;20777;-74
2023/06/18 08:52:53;;;;;;;1.85;1.70;;;;;;;23.53;48.15;100376.78;4529105;28;20044;-73
2023/06/18 08:55:06;;;;;;;2.15;1.95;;;;;;;23.56;47.99;100372.28;4529334;28;20587;-73
2023/06/18 08:57:31;;;;;;;1.50;1.40;;;;;;;23.58;47.87;100375.59;4530969;28;20599;-73
2023/06/18 08:59:48;;;;;;;2.00;1.90;;;;;;;23.53;48.32;100376.78;4526833;28;20038;-73
2023/06/18 09:01:59;;;;;;;1.85;1.75;;;;;;;23.58;47.67;100375.59;4529253;28;20037;-69
2023/06/18 09:04:10;;;;;;;2.15;1.95;;;;;;;23.60;46.84;100382.63;4529524;28;20033;-68
2023/06/18 09:06:23;;;;;;;1.90;1.70;;;;;;;23.58;47.57;100369.81;4528509;28;20037;-73
2023/06/18 09:08:33;;;;;;;2.50;1.52;;;;;;;23.54;47.71;100366.91;4529643;28;20029;-72
2023/06/18 09:10:44;;;;;;;2.05;1.85;;;;;;;23.54;47.07;100366.09;4529934;28;20037;-73
2023/06/18 09:12:55;;;;;;;1.90;1.80;;;;;;;23.54;46.06;100364.03;4534562;28;20135;-72
2023/06/18 09:15:06;;;;;;;2.05;1.85;;;;;;;23.60;47.42;100367.38;4535081;28;20033;-72
2023/06/18 09:17:16;;;;;;;2.15;1.90;;;;;;;23.51;48.00;100355.34;4530244;28;20053;-72
2023/06/18 09:19:27;;;;;;;2.10;1.90;;;;;;;23.54;46.91;100361.16;4528879;28;20455;-72
2023/06/18 09:21:43;;;;;;;1.88;1.77;;;;;;;23.56;47.81;100355.00;4527698;28;20033;-72
2023/06/18 09:23:54;;;;;;;2.15;1.95;;;;;;;23.58;47.63;100355.41;4543374;28;20017;-71
2023/06/18 09:26:05;;;;;;;1.75;1.65;;;;;;;23.52;47.43;100354.13;4536002;28;20083;-72
2023/06/18 09:28:15;;;;;;;1.70;1.52;;;;;;;23.55;47.95;100356.22;4530387;28;20677;-71
2023/06/18 09:30:26;;;;;;;2.25;1.60;;;;;;;23.54;47.63;100360.31;4534856;28;20091;-72
2023/06/18 09:32:46;;;;;;;1.60;1.50;;;;;;;23.57;47.55;100356.66;4529664;28;20037;-73
2023/06/18 09:35:10;;;;;;;1.92;1.83;;;;;;;23.56;47.75;100355.81;4528785;28;20041;-72
2023/06/18 09:37:21;;;;;;;1.83;1.73;;;;;;;23.52;48.16;100351.22;4525945;28;20053;-72
2023/06/18 09:39:33;;;;;;;1.83;1.63;;;;;;;23.55;47.75;100351.28;4529851;28;20761;-72
2023/06/18 09:41:45;;;;;;;1.73;1.63;;;;;;;23.57;47.16;100348.00;4527921;28;20812;-73
2023/06/18 09:43:56;;;;;;;1.70;1.60;;;;;;;23.57;47.00;100350.88;4528591;28;20057;-73
2023/06/18 09:46:07;;;;;;;1.70;1.60;;;;;;;23.50;47.08;100343.00;4528052;28;20029;-73
2023/06/18 09:48:18;;;;;;;1.95;1.75;;;;;;;23.53;47.54;100350.03;4529393;28;20571;-72
2023/06/18 09:50:31;;;;;;;1.65;1.55;;;;;;;23.54;46.43;100349.63;4520406;28;20613;-74
2023/06/18 09:52:46;;;;;;;1.85;1.75;;;;;;;23.57;47.30;100348.00;4536390;28;20037;-72
2023/06/18 09:54:58;;;;;;;1.60;1.50;;;;;;;23.53;47.70;100352.91;4527108;28;20091;-73
2023/06/18 09:57:11;;;;;;;1.80;1.70;;;;;;;23.53;47.71;100353.72;4527656;28;20040;-73
2023/06/18 09:59:22;;;;;;;1.83;1.73;;;;;;;23.54;45.50;100354.56;4526324;28;20041;-73
2023/06/18 10:01:46;;;;;;;1.70;1.60;;;;;;;23.54;45.70;100354.56;4530725;28;20033;-74
2023/06/18 10:03:57;;;;;;;1.90;1.80;;;;;;;23.47;45.55;100348.69;4529882;28;20847;-73
2023/06/18 10:06:16;;;;;;;2.25;1.80;;;;;;;23.48;45.84;100354.06;4529848;28;20115;-69
2023/06/18 10:08:29;;;;;;;2.60;1.77;;;;;;;23.51;45.91;100349.59;4531050;28;20045;-71
2023/06/18 10:10:40;;;;;;;1.83;1.63;;;;;;;23.50;45.96;100347.91;4528224;28;20638;-70
2023/06/18 10:12:55;;;;;;;2.10;1.80;;;;;;;23.51;45.88;100353.31;4530102;28;20543;-70
2023/06/18 10:15:06;;;;;;;2.25;1.70;;;;;;;23.50;45.97;100347.91;4528111;28;20590;-69